• Join FlightAware (Why Join?)
  • Login
  • US Flag 
02:41PM EDT


 

Airport Tracker/Info


-or-


 

Live Flight TrackerFlight Track Log ✈ SWA3764 ✈ 22-Jun-2013 ✈ KMSY - KMCO

Flight Track Log - Related Links

Times and Time Zones

All times are in EDT time to prevent confusion due to time zone crossing. See the SWA3764 flight status page for this flight to view local times or setup timezone preferences in your user account.

Time Position Orientation Groundspeed Altitude Reporting Facility
EDT Latitude Longitude Course Direction KTS MPH feet Rate Location/Type
08:41AM 30.0050 -90.2456 11° North 143 165 500  Level Houston Center
08:41AM 30.0300 -90.2397 11° North 164 189 1,500 2,580 Climbing Houston Center
08:42AM 30.0703 -90.2300 12° North 209 241 3,700 3,000 Climbing Houston Center
08:43AM 30.0681 -90.1675 92° East 265 305 6,800 3,360 Climbing Houston Center
08:44AM 30.0061 -90.1122 142° Southeast 282 325 10,600 3,720 Climbing Houston Center
08:45AM 29.9492 -90.0428 133° Southeast 302 348 14,500 2,940 Climbing Houston Center
08:46AM 29.9014 -89.9572 123° Southeast 315 362 16,700 2,220 Climbing Houston Center
08:47AM 29.8581 -89.8494 115° Southeast 368 423 19,100 2,580 Climbing Houston Center
08:48AM 29.8031 -89.7144 115° Southeast 391 450 22,000 2,580 Climbing Houston Center
08:49AM 29.7542 -89.5950 115° Southeast 411 473 24,500 2,160 Climbing Houston Center
08:50AM 29.7039 -89.4697 115° Southeast 429 494 26,500 2,040 Climbing Houston Center
08:51AM 29.6517 -89.3425 115° Southeast 439 505 28,700 1,980 Climbing Houston Center
08:52AM 29.5972 -89.2125 116° Southeast 451 519 30,600 1,800 Climbing Houston Center
08:53AM 29.5431 -89.0806 115° Southeast 456 525 32,500 1,860 Climbing Houston Center
08:54AM 29.4892 -88.9483 115° Southeast 457 526 34,500 1,860 Climbing Houston Center
08:55AM 29.4236 -88.7911 116° Southeast 457 526 36,300 1,560 Climbing Houston Center
08:56AM 29.3683 -88.6581 115° Southeast 461 531 37,700 1,260 Climbing Houston Center
08:57AM 29.3119 -88.5264 116° Southeast 461 531 39,000 600 Climbing Houston Center
08:58AM 29.2567 -88.3953 116° Southeast 458 527 39,000  Level Houston Center
08:59AM 29.2025 -88.2625 115° Southeast 459 528 39,000  Level Houston Center
09:00AM 29.1461 -88.1322 116° Southeast 458 527 39,000  Level Houston Center
09:01AM 29.0886 -87.9939 115° Southeast 462 532 39,000  Level Houston Center
09:02AM 29.0336 -87.8639 116° Southeast 457 526 39,000  Level Houston Center
09:03AM 28.9836 -87.7281 113° Southeast 464 534 39,000  Level Houston Center
09:04AM 28.9619 -87.5858 100° East 458 527 39,000  Level Houston Center
09:05AM 28.9306 -87.4153 102° East 457 526 39,000  Level Houston Center
09:06AM 28.9056 -87.2736 101° East 456 525 39,000  Level Houston Center
09:07AM 28.8808 -87.1306 101° East 459 528 39,000  Level Houston Center
09:08AM 28.8575 -86.9894 101° East 456 525 39,000  Level Houston Center
09:09AM 28.8339 -86.8506 101° East 450 518 39,000  Level Houston Center
09:10AM 28.8164 -86.7358 100° East 448 516 39,000  Level Jacksonville Center
09:11AM 28.7933 -86.5975 101° East 448 516 39,000  Level Jacksonville Center
09:12AM 28.7597 -86.4636 106° East 448 516 39,000  Level Jacksonville Center
09:13AM 28.7153 -86.3344 111° Southeast 448 516 39,000  Level Jacksonville Center
09:14AM 28.6539 -86.2044 118° Southeast 442 509 39,000  Level Jacksonville Center
09:15AM 28.5944 -86.0819 119° Southeast 453 521 39,000  Level Jacksonville Center
09:16AM 28.5286 -85.9642 122° Southeast 453 521 39,000  Level Jacksonville Center
09:17AM 28.4347 -85.8669 138° Southeast 444 511 39,000  Level Jacksonville Center
09:18AM 28.3261 -85.7881 147° Southeast 449 517 39,000  Level Jacksonville Center
09:19AM 28.2169 -85.7192 151° Southeast 449 517 39,000  Level Jacksonville Center
09:20AM 28.1103 -85.6408 147° Southeast 454 522 39,000  Level Jacksonville Center
09:21AM 28.0075 -85.5606 145° Southeast 454 522 39,000  Level Jacksonville Center
09:22AM 27.9408 -85.4553 126° Southeast 430 495 39,000  Level Jacksonville Center
09:24AM 27.8617 -85.2447 113° Southeast 439 505 39,000  Level Miami Center
09:25AM 27.8233 -85.1153 108° East 441 507 39,000  Level Miami Center
09:26AM 27.7672 -84.9683 113° Southeast 446 513 39,000  Level Miami Center
09:27AM 27.7308 -84.8344 107° East 451 519 39,000  Level Miami Center
09:28AM 27.6861 -84.7028 111° Southeast 451 519 39,000  Level Miami Center
09:29AM 27.6600 -84.5650 102° East 451 519 39,000 -120 Level Miami Center
09:30AM 27.6342 -84.4275 102° East 451 519 38,800 -1,560 Descending Miami Center
09:31AM 27.6311 -84.2869 91° East 446 513 35,900 -2,340 Descending Miami Center
09:32AM 27.6489 -84.1428 82° East 445 512 34,200 -1,440 Descending Miami Center
09:33AM 27.6642 -84.0033 83° East 450 518 33,100 -600 Descending Miami Center
09:34AM 27.6792 -83.8661 83° East 450 518 33,000 -300 Descending Miami Center
09:35AM 27.6942 -83.7289 83° East 445 512 32,500 -1,620 Descending Miami Center
09:36AM 27.7153 -83.5897 80° East 440 506 29,800 -2,520 Descending Miami Center
09:37AM 27.7278 -83.4567 84° East 440 506 27,500 -2,340 Descending Miami Center
09:38AM 27.7419 -83.3264 83° East 435 501 25,200 -2,220 Descending Miami Center
09:39AM 27.7539 -83.1981 84° East 423 487 23,100 -1,140 Descending Miami Center
09:40AM 27.7697 -83.0747 82° East 406 467 23,000 -360 Descending Miami Center
09:41AM 27.7811 -82.9533 84° East 395 455 22,400 -780 Descending Miami Center
09:42AM 27.7942 -82.8439 82° East 395 455 21,500 -960 Descending Miami Center
09:43AM 27.8072 -82.7272 83° East 384 442 20,500 -1,020 Descending Miami Center
09:44AM 27.8161 -82.6103 85° East 379 436 19,500 -1,020 Descending Miami Center
09:45AM 27.8333 -82.4961 80° East 372 428 18,500 -960 Descending Miami Center
09:46AM 27.8753 -82.3808 68° East 355 409 17,600 -780 Descending Miami Center
09:47AM 27.9064 -82.2744 72° East 355 409 17,000 -300 Descending Miami Center
09:48AM 27.9394 -82.1728 70° East 355 409 17,000 -1,020 Level Miami Center
09:50AM 28.0333 -81.9167 67° East 341 392 13,600 -1,140 Descending Orlando TRACON
09:51AM 28.0833 -81.8167 60° Northeast 333 383 13,000 -780 Descending Orlando TRACON
09:52AM 28.1333 -81.7333 56° Northeast 330 380 12,000 -1,440 Descending Orlando TRACON
09:53AM 28.1833 -81.6500 56° Northeast 326 375 10,200 -1,080 Descending Orlando TRACON
09:54AM 28.2333 -81.5667 56° Northeast 316 364 10,000 -120 Descending Orlando TRACON
09:55AM 28.2833 -81.5000 50° Northeast 312 359 10,000 -240 Level Orlando TRACON
09:56AM 28.3333 -81.4333 50° Northeast 250 288 9,600 -660 Descending Orlando TRACON
09:57AM 28.4000 -81.4167 12° North 252 290 8,700 -1,020 Descending Orlando TRACON
09:58AM 28.4667 -81.4167 360° North 242 278 7,600 -1,080 Descending Orlando TRACON
09:59AM 28.5333 -81.4167 360° North 242 278 6,600 -1,080 Descending Orlando TRACON
10:00AM 28.6000 -81.4167 360° North 236 272 5,600 -840 Descending Orlando TRACON
10:01AM 28.6667 -81.4167 360° North 234 269 5,000 -300 Descending Orlando TRACON
10:02AM 28.7167 -81.4167 360° North 236 272 5,000  Level Orlando TRACON
10:03AM 28.7000 -81.3500 106° East 230 265 5,000 -600 Level Orlando TRACON
10:04AM 28.6500 -81.3333 164° South 220 253 3,700 -1,140 Descending Orlando TRACON
10:05AM 28.6000 -81.3333 180° South 187 215 2,800 -1,020 Descending Orlando TRACON
10:06AM 28.5500 -81.3333 180° South 176 203 1,800 -900 Descending Orlando TRACON
10:07AM 28.5000 -81.3333 180° South 142 163 1,100 -660 Descending Orlando TRACON
10:08AM 28.4667 -81.3333 180° South 123 142 500 -660 Descending Orlando TRACON
10:10AM 28.4294 -81.3090 161° South  Level Estimated
10:17AM 28.4294 -81.3090 161° South  Level Estimated